KABY/ABY METAR and TAF weather

Enter ICAO airport designator
Station Type Date Time Source
KABY METAR 2022/05/25 00:53 UTC NOAA

KABY 250053Z 05003KT 10SM CLR 23/21 A3006 RMK AO2 SLP177 T02280206


Station Type Date Time Source
KABY Decoded METAR 2022/05/25 00:53 UTC NOAA

ALBANY SOUTHWEST GEORGIA, GA, United States (KABY) 31-32N 084-12W 58M
May 24, 2022 - 08:53 PM EDT / 2022.05.25 0053 UTC
Wind: from the NE (050 degrees) at 3 MPH (3 KT):0
Visibility: 10 mile(s):0
Sky conditions: clear
Temperature: 73.0 F (22.8 C)
Dew Point: 69.1 F (20.6 C)
Relative Humidity: 87%
Pressure (altimeter): 30.06 in. Hg (1017 hPa)
ob: KABY 250053Z 05003KT 10SM CLR 23/21 A3006 RMK AO2 SLP177 T02280206
cycle: 1

Station Type Date Time Source
KABY TAF 2022/05/24 18:27 UTC NOAA

TAF KABY 241725Z 2418/2518 14007KT P6SM SCT100
FM242000 18006KT P6SM VCTS SCT040CB SCT100
TEMPO 2420/2422 3SM TSRA
FM250000 VRB03KT P6SM SCT100
FM251200 14010KT P6SM SCT050 SCT100

Example: see airport list